Time;durP1;ratioP1;P1;durP2;ratioP2;P2;SDS_P1;SDS_P2;PMS_P1;PMS_P2;Temp;Humidity;BMP_temperature;BMP_pressure;BME280_temperature;BME280_humidity;BME280_pressure;Samples;Min_cycle;Max_cycle;Signal;HPM_P1;HPM_P2
2023/01/18 00:00:18;;;;;;;0.70;0.70;;;23.80;37.30;;;;;;5064828;27;84716;-59
2023/01/18 00:02:46;;;;;;;0.53;0.53;;;23.80;37.30;;;;;;5065020;27;82473;-58
2023/01/18 00:05:14;;;;;;;0.50;0.50;;;23.80;37.10;;;;;;5064698;27;82838;-59
2023/01/18 00:07:42;;;;;;;1.90;0.90;;;23.80;37.10;;;;;;5064611;27;83028;-58
2023/01/18 00:10:10;;;;;;;0.97;0.87;;;23.80;37.10;;;;;;5064780;27;81956;-58
2023/01/18 00:12:40;;;;;;;0.93;0.90;;;23.70;37.10;;;;;;5064731;27;81971;-59
2023/01/18 00:15:09;;;;;;;0.80;0.70;;;23.70;37.10;;;;;;5064794;27;82478;-58
2023/01/18 00:17:46;;;;;;;1.47;0.80;;;23.60;37.10;;;;;;5063894;27;82924;-58
2023/01/18 00:20:14;;;;;;;1.80;0.87;;;23.50;37.10;;;;;;5063815;27;82752;-58
2023/01/18 00:22:42;;;;;;;1.57;0.77;;;23.50;37.10;;;;;;5063616;27;83572;-58
2023/01/18 00:25:11;;;;;;;0.60;0.60;;;23.40;37.10;;;;;;5064063;27;82896;-58
2023/01/18 00:27:40;;;;;;;1.03;0.93;;;23.30;37.10;;;;;;5049623;27;83084;-58
2023/01/18 00:30:09;;;;;;;0.50;0.50;;;23.20;37.10;;;;;;5064404;27;84241;-58
2023/01/18 00:32:37;;;;;;;1.13;0.83;;;23.20;37.10;;;;;;5064283;27;82069;-58
2023/01/18 00:35:07;;;;;;;1.47;0.80;;;23.10;37.10;;;;;;5063596;27;83140;-58
2023/01/18 00:37:35;;;;;;;0.90;0.80;;;23.00;37.10;;;;;;5064176;27;84097;-58
2023/01/18 00:40:04;;;;;;;0.50;0.50;;;22.90;37.10;;;;;;5064403;27;81848;-58
2023/01/18 00:45:19;;;;;;;1.10;1.00;;;22.80;37.10;;;;;;5063950;27;82660;-58
2023/01/18 00:47:47;;;;;;;0.50;0.50;;;22.70;37.10;;;;;;5063430;27;83765;-57
2023/01/18 00:50:15;;;;;;;2.10;0.87;;;22.60;37.70;;;;;;5063890;27;84918;-60
2023/01/18 00:52:45;;;;;;;1.03;0.67;;;22.60;37.10;;;;;;5064374;27;81970;-57
2023/01/18 00:55:13;;;;;;;1.10;0.90;;;22.50;37.10;;;;;;5064070;27;81891;-61
2023/01/18 00:57:41;;;;;;;0.60;0.60;;;22.50;37.10;;;;;;5064415;27;82683;-57
2023/01/18 01:00:14;;;;;;;1.40;1.10;;;22.40;37.10;;;;;;5063700;27;82015;-57
2023/01/18 01:02:43;;;;;;;1.23;0.80;;;22.40;37.10;;;;;;5063747;27;81986;-59
2023/01/18 01:08:02;;;;;;;1.03;0.90;;;22.30;37.20;;;;;;5064162;27;83091;-59
2023/01/18 01:10:30;;;;;;;1.30;0.73;;;22.20;37.80;;;;;;5063398;27;82932;-59
2023/01/18 01:26:47;;;;;;;0.80;0.80;;;22.00;37.40;;;;;;5043479;28;82015;-59
2023/01/18 01:29:15;;;;;;;1.53;0.93;;;21.90;37.30;;;;;;5043489;28;83194;-59
2023/01/18 01:31:43;;;;;;;0.90;0.70;;;21.90;37.30;;;;;;5059442;27;82559;-59
2023/01/18 01:34:13;;;;;;;0.47;0.47;;;21.80;37.30;;;;;;5062495;27;82191;-59
2023/01/18 01:36:41;;;;;;;0.80;0.70;;;21.80;37.30;;;;;;5063407;27;86641;-59
2023/01/18 01:39:09;;;;;;;0.60;0.60;;;21.80;37.30;;;;;;5062342;27;84049;-59
2023/01/18 01:41:38;;;;;;;0.57;0.57;;;21.80;37.30;;;;;;5063338;27;83343;-59
2023/01/18 01:44:39;;;;;;;0.70;0.60;;;21.70;37.20;;;;;;5063707;27;82034;-59
2023/01/18 01:47:09;;;;;;;1.00;0.50;;;21.70;37.30;;;;;;5063918;27;85165;-59
2023/01/18 01:49:39;;;;;;;0.50;0.50;;;21.70;37.30;;;;;;5063432;27;83084;-59
2023/01/18 01:52:09;;;;;;;0.77;0.70;;;21.60;37.20;;;;;;5062751;27;82546;-59
2023/01/18 01:54:38;;;;;;;2.00;0.97;;;21.60;37.30;;;;;;5063344;27;81969;-59
2023/01/18 01:57:09;;;;;;;1.23;0.60;;;21.60;37.30;;;;;;5064046;27;81916;-59
2023/01/18 01:59:39;;;;;;;0.93;0.83;;;21.60;37.30;;;;;;5063671;27;82033;-59
2023/01/18 02:02:07;;;;;;;0.53;0.50;;;21.50;37.20;;;;;;5063609;27;82893;-59
2023/01/18 02:04:35;;;;;;;0.67;0.67;;;21.50;37.20;;;;;;5063215;27;83003;-60
2023/01/18 02:07:04;;;;;;;0.67;0.60;;;21.50;37.30;;;;;;5063318;27;81942;-59
2023/01/18 02:09:32;;;;;;;0.50;0.50;;;21.50;37.30;;;;;;5063366;27;83114;-59
2023/01/18 02:12:01;;;;;;;0.60;0.60;;;21.40;37.30;;;;;;5063582;27;83080;-59
2023/01/18 02:14:29;;;;;;;1.97;0.90;;;21.40;37.30;;;;;;5063346;27;82058;-60
2023/01/18 02:17:07;;;;;;;0.80;0.80;;;21.40;37.30;;;;;;5063122;27;82749;-60
2023/01/18 02:20:06;;;;;;;0.70;0.60;;;21.30;37.20;;;;;;5063286;27;83993;-59
2023/01/18 02:22:45;;;;;;;0.53;0.40;;;21.30;37.30;;;;;;5060114;27;85283;-59
2023/01/18 02:25:27;;;;;;;0.50;0.50;;;21.30;37.30;;;;;;5063179;27;81936;-60
2023/01/18 02:28:09;;;;;;;1.87;0.73;;;21.20;37.30;;;;;;5063327;27;82896;-59
2023/01/18 02:30:39;;;;;;;0.63;0.63;;;21.20;37.30;;;;;;5062634;27;83995;-59
2023/01/18 02:33:09;;;;;;;1.17;0.73;;;21.20;37.90;;;;;;5063008;27;83750;-59
2023/01/18 02:35:44;;;;;;;0.93;0.90;;;21.10;37.20;;;;;;5062770;27;81954;-59
2023/01/18 02:38:13;;;;;;;1.00;0.70;;;21.10;37.20;;;;;;5062495;27;83871;-59
2023/01/18 02:40:52;;;;;;;0.40;0.33;;;21.10;37.20;;;;;;5062666;27;82931;-59
2023/01/18 02:48:53;;;;;;;0.67;0.67;;;21.10;37.30;;;;;;5066419;27;81726;-59
2023/01/18 02:51:21;;;;;;;0.37;0.37;;;21.10;37.30;;;;;;5066550;27;82673;-59
2023/01/18 02:53:49;;;;;;;0.60;0.60;;;21.10;37.30;;;;;;5066002;27;82797;-59
2023/01/18 02:56:18;;;;;;;0.60;0.60;;;21.00;37.30;;;;;;5065375;27;82943;-60
2023/01/18 02:58:48;;;;;;;0.50;0.50;;;21.00;37.30;;;;;;5066189;27;83989;-59
2023/01/18 03:01:17;;;;;;;0.40;0.40;;;20.90;37.20;;;;;;5065916;27;83083;-59
2023/01/18 03:03:46;;;;;;;0.90;0.80;;;20.90;37.20;;;;;;5065478;27;83722;-59
2023/01/18 03:06:14;;;;;;;1.20;0.70;;;20.90;37.30;;;;;;5065586;27;82067;-59
2023/01/18 03:08:44;;;;;;;0.50;0.50;;;20.90;37.30;;;;;;5065826;27;82688;-59
2023/01/18 03:11:14;;;;;;;0.40;0.40;;;20.90;37.30;;;;;;5065448;27;84255;-59
2023/01/18 03:14:03;;;;;;;0.87;0.67;;;20.80;37.20;;;;;;5066064;27;84217;-59
2023/01/18 03:16:39;;;;;;;1.30;0.90;;;20.80;37.30;;;;;;5065244;27;82293;-59
2023/01/18 03:21:57;;;;;;;0.60;0.43;;;20.80;37.30;;;;;;5065268;27;83960;-59
2023/01/18 03:24:24;;;;;;;0.40;0.40;;;20.80;37.30;;;;;;5065864;27;83875;-59
2023/01/18 03:26:53;;;;;;;1.90;0.73;;;20.70;37.30;;;;;;5065770;27;81953;-59
2023/01/18 03:34:57;;;;;;;0.47;0.47;;;20.70;37.30;;;;;;5065693;27;82826;-59
2023/01/18 03:37:27;;;;;;;0.30;0.30;;;20.60;37.30;;;;;;5065359;27;82849;-59
2023/01/18 03:39:57;;;;;;;0.53;0.53;;;20.60;37.30;;;;;;5065340;27;83931;-59
2023/01/18 03:42:27;;;;;;;0.63;0.50;;;20.60;37.30;;;;;;5065558;27;81981;-60
2023/01/18 03:44:58;;;;;;;0.20;0.20;;;20.60;37.40;;;;;;5065086;27;81903;-60
2023/01/18 03:47:27;;;;;;;0.50;0.50;;;20.60;37.30;;;;;;5064508;27;82981;-61
2023/01/18 03:49:56;;;;;;;0.70;0.70;;;20.50;37.20;;;;;;5065127;27;84976;-59
2023/01/18 03:52:25;;;;;;;0.60;0.53;;;20.60;37.40;;;;;;5065029;27;83159;-59
2023/01/18 03:54:57;;;;;;;0.40;0.40;;;20.50;37.30;;;;;;5065612;27;82590;-61
2023/01/18 03:57:28;;;;;;;0.20;0.20;;;20.50;37.30;;;;;;5065532;27;81935;-60
2023/01/18 03:59:56;;;;;;;0.57;0.50;;;20.50;37.30;;;;;;5065380;27;82692;-60
2023/01/18 04:02:24;;;;;;;2.50;0.50;;;20.50;37.30;;;;;;5065296;27;83859;-60
2023/01/18 04:04:57;;;;;;;1.53;0.60;;;20.50;37.30;;;;;;5065349;27;82844;-60
2023/01/18 04:07:25;;;;;;;0.93;0.57;;;20.40;37.30;;;;;;5065239;27;81989;-59
2023/01/18 04:09:53;;;;;;;0.53;0.50;;;20.40;37.30;;;;;;5064598;27;81851;-58
2023/01/18 04:12:21;;;;;;;0.50;0.50;;;20.40;37.30;;;;;;5063986;27;84015;-59
2023/01/18 04:14:49;;;;;;;0.60;0.60;;;20.40;37.30;;;;;;5065079;27;83658;-59
2023/01/18 04:17:17;;;;;;;0.60;0.40;;;20.40;37.30;;;;;;5064553;27;81900;-59
2023/01/18 04:19:45;;;;;;;0.60;0.40;;;20.40;38.00;;;;;;5065169;27;82971;-59
2023/01/18 04:22:15;;;;;;;0.30;0.30;;;20.40;37.30;;;;;;5064596;27;82851;-59
2023/01/18 04:24:43;;;;;;;0.47;0.40;;;20.30;37.30;;;;;;5063951;27;82881;-59
2023/01/18 04:27:11;;;;;;;1.03;0.63;;;20.30;37.30;;;;;;5064557;27;81856;-59
2023/01/18 04:29:39;;;;;;;0.57;0.50;;;20.30;37.30;;;;;;5062566;27;81821;-58
2023/01/18 04:32:07;;;;;;;0.50;0.50;;;20.30;37.30;;;;;;5060002;27;82934;-58
2023/01/18 04:34:35;;;;;;;0.63;0.60;;;20.30;37.30;;;;;;5058983;27;83469;-60
2023/01/18 04:37:03;;;;;;;0.60;0.60;;;20.30;37.30;;;;;;5062992;27;82913;-59
2023/01/18 04:39:32;;;;;;;1.30;0.70;;;20.30;37.30;;;;;;5063474;27;82824;-59
2023/01/18 04:42:00;;;;;;;1.27;0.73;;;20.20;37.30;;;;;;5064025;27;82975;-59
2023/01/18 04:44:28;;;;;;;0.93;0.93;;;20.20;37.30;;;;;;5063592;27;83030;-60
2023/01/18 04:46:56;;;;;;;0.87;0.60;;;20.20;37.30;;;;;;5064092;27;82021;-59
2023/01/18 04:49:24;;;;;;;0.40;0.40;;;20.20;37.30;;;;;;5063961;27;83931;-59
2023/01/18 04:51:52;;;;;;;0.30;0.30;;;20.20;37.30;;;;;;5062963;27;83259;-59
2023/01/18 04:54:23;;;;;;;0.30;0.30;;;20.20;37.30;;;;;;5064170;27;82430;-60
2023/01/18 04:56:52;;;;;;;0.47;0.47;;;20.10;37.20;;;;;;5064120;27;82011;-60
2023/01/18 04:59:20;;;;;;;0.40;0.40;;;20.10;37.20;;;;;;5063934;27;83923;-59
2023/01/18 05:01:48;;;;;;;0.60;0.50;;;20.10;37.30;;;;;;5063068;27;84067;-59
2023/01/18 05:04:16;;;;;;;0.50;0.50;;;20.10;37.30;;;;;;5064070;27;83742;-59
2023/01/18 05:06:44;;;;;;;0.40;0.40;;;20.10;37.30;;;;;;5064006;27;82066;-59
2023/01/18 05:09:12;;;;;;;0.30;0.30;;;20.10;37.30;;;;;;5063264;27;85330;-59
2023/01/18 05:11:41;;;;;;;0.40;0.40;;;20.00;37.20;;;;;;5063343;27;83841;-59
2023/01/18 05:14:10;;;;;;;0.40;0.40;;;20.00;37.30;;;;;;5063710;27;82970;-59
2023/01/18 05:16:41;;;;;;;0.40;0.40;;;20.00;37.30;;;;;;5063321;27;81889;-59
2023/01/18 05:19:10;;;;;;;0.50;0.50;;;20.00;37.30;;;;;;5064449;27;82935;-59
2023/01/18 05:21:38;;;;;;;0.43;0.43;;;20.00;37.30;;;;;;5063455;27;81932;-59
2023/01/18 05:24:06;;;;;;;0.83;0.83;;;20.00;37.30;;;;;;5047083;27;82412;-59
2023/01/18 05:26:35;;;;;;;0.30;0.30;;;19.90;37.20;;;;;;5060453;27;82988;-59
2023/01/18 05:29:03;;;;;;;0.40;0.37;;;19.90;37.20;;;;;;5063558;27;83784;-59
2023/01/18 05:31:32;;;;;;;0.30;0.30;;;19.90;37.20;;;;;;5063414;27;83792;-59
2023/01/18 05:34:01;;;;;;;0.33;0.30;;;19.90;37.20;;;;;;5059922;27;82849;-59
2023/01/18 05:36:29;;;;;;;0.80;0.60;;;19.90;37.20;;;;;;5063050;27;81969;-60
2023/01/18 05:38:57;;;;;;;0.30;0.30;;;19.90;37.20;;;;;;5062514;27;82814;-59
2023/01/18 05:41:25;;;;;;;0.40;0.40;;;19.90;37.20;;;;;;5062275;27;82675;-59
2023/01/18 05:43:52;;;;;;;0.87;0.60;;;19.90;37.30;;;;;;5063501;27;81621;-59
2023/01/18 05:46:20;;;;;;;0.23;0.23;;;19.80;37.20;;;;;;5063455;27;82120;-59
2023/01/18 05:48:50;;;;;;;0.40;0.40;;;19.80;37.20;;;;;;5063785;27;83765;-60
2023/01/18 05:51:18;;;;;;;0.40;0.40;;;19.80;37.20;;;;;;5063003;27;83834;-60
2023/01/18 05:53:46;;;;;;;0.30;0.30;;;19.80;37.20;;;;;;5063599;27;84649;-59
2023/01/18 05:56:14;;;;;;;0.67;0.53;;;19.80;37.20;;;;;;5063514;27;81925;-59
2023/01/18 05:58:42;;;;;;;0.50;0.50;;;19.80;37.20;;;;;;5063613;27;83796;-59
2023/01/18 06:01:10;;;;;;;0.77;0.53;;;19.80;37.30;;;;;;5063376;27;83094;-59
2023/01/18 06:03:38;;;;;;;2.60;0.63;;;19.70;36.60;;;;;;5063114;27;82954;-59
2023/01/18 06:06:08;;;;;;;0.53;0.43;;;19.70;37.20;;;;;;5063089;27;82710;-59
2023/01/18 06:08:36;;;;;;;0.93;0.70;;;19.70;37.20;;;;;;5063696;27;83754;-59
2023/01/18 06:11:05;;;;;;;0.57;0.40;;;19.70;37.20;;;;;;5063615;27;84050;-59
2023/01/18 06:13:33;;;;;;;0.50;0.50;;;19.70;37.20;;;;;;5063293;27;82568;-59
2023/01/18 06:16:01;;;;;;;1.53;0.43;;;19.70;37.20;;;;;;5062386;27;82965;-59
2023/01/18 06:18:31;;;;;;;0.67;0.40;;;19.70;37.20;;;;;;5063187;27;83866;-59
2023/01/18 06:21:00;;;;;;;0.30;0.30;;;19.70;37.20;;;;;;5064308;27;83103;-59
2023/01/18 06:23:30;;;;;;;0.43;0.30;;;19.60;37.20;;;;;;5066770;27;84059;-59
2023/01/18 06:25:58;;;;;;;0.67;0.53;;;19.60;37.20;;;;;;5066697;27;81916;-59
2023/01/18 06:28:26;;;;;;;0.30;0.30;;;19.60;37.20;;;;;;5066390;27;82778;-59
2023/01/18 06:30:57;;;;;;;1.00;0.77;;;19.60;37.20;;;;;;5066743;27;82678;-59
2023/01/18 06:33:25;;;;;;;0.50;0.30;;;19.60;37.30;;;;;;5066892;27;82964;-59
2023/01/18 06:35:53;;;;;;;0.50;0.50;;;19.60;37.20;;;;;;5066467;27;82590;-59
2023/01/18 06:38:21;;;;;;;0.47;0.47;;;19.60;37.20;;;;;;5066382;27;81944;-59
2023/01/18 06:40:51;;;;;;;0.40;0.40;;;19.60;37.20;;;;;;5065560;27;85389;-59
2023/01/18 06:43:18;;;;;;;0.50;0.50;;;19.60;37.20;;;;;;5066328;27;84987;-59
2023/01/18 06:45:52;;;;;;;0.50;0.43;;;19.60;37.20;;;;;;5066339;27;81915;-59
2023/01/18 06:48:20;;;;;;;0.40;0.40;;;19.70;37.20;;;;;;5066120;27;82753;-59
2023/01/18 06:50:48;;;;;;;0.50;0.50;;;19.80;37.20;;;;;;5065676;27;84096;-59
2023/01/18 06:53:16;;;;;;;0.60;0.50;;;20.00;37.20;;;;;;5066100;27;83827;-59
2023/01/18 06:55:44;;;;;;;0.70;0.50;;;20.10;37.20;;;;;;5066164;27;81945;-59
2023/01/18 06:58:14;;;;;;;0.40;0.40;;;20.20;37.10;;;;;;5066320;27;82644;-59
2023/01/18 07:00:42;;;;;;;0.40;0.40;;;20.20;37.00;;;;;;5065645;27;84093;-59
2023/01/18 07:03:10;;;;;;;0.30;0.30;;;20.30;37.10;;;;;;5066368;27;83510;-59
2023/01/18 07:05:38;;;;;;;0.77;0.50;;;20.40;37.10;;;;;;5066232;27;82980;-59
2023/01/18 07:08:06;;;;;;;1.07;0.70;;;20.40;37.10;;;;;;5065851;27;84065;-59
2023/01/18 07:10:35;;;;;;;0.47;0.47;;;20.40;37.10;;;;;;5066199;27;83201;-59
2023/01/18 07:13:03;;;;;;;0.97;0.40;;;20.40;37.10;;;;;;5066196;27;82808;-59
2023/01/18 07:15:33;;;;;;;0.30;0.30;;;20.40;37.10;;;;;;5065842;27;81937;-59
2023/01/18 07:21:45;;;;;;;0.30;0.30;;;20.30;37.10;;;;;;5046843;22;82627;-59
2023/01/18 07:24:13;;;;;;;0.83;0.60;;;20.20;37.10;;;;;;5037291;28;82829;-59
2023/01/18 07:26:42;;;;;;;0.43;0.43;;;20.30;37.20;;;;;;5045161;27;82050;-60
2023/01/18 07:29:11;;;;;;;0.57;0.57;;;20.20;37.10;;;;;;5045072;27;83539;-59
2023/01/18 07:31:40;;;;;;;0.43;0.40;;;20.20;37.20;;;;;;5044594;27;85276;-59
2023/01/18 07:34:09;;;;;;;0.80;0.50;;;20.20;37.30;;;;;;5045432;27;84006;-59
2023/01/18 07:36:38;;;;;;;0.50;0.50;;;20.10;37.20;;;;;;5045541;27;82055;-59
2023/01/18 07:39:06;;;;;;;0.30;0.30;;;20.10;37.20;;;;;;5045286;28;82601;-59
2023/01/18 07:41:34;;;;;;;0.67;0.40;;;20.10;37.20;;;;;;5045135;27;83127;-59
2023/01/18 07:44:02;;;;;;;0.50;0.30;;;20.00;37.20;;;;;;5044975;27;83024;-60
2023/01/18 07:46:30;;;;;;;0.57;0.57;;;20.00;37.30;;;;;;5044853;27;82097;-59
2023/01/18 07:49:01;;;;;;;0.43;0.43;;;19.90;37.20;;;;;;5045077;27;81597;-60
2023/01/18 07:51:29;;;;;;;0.40;0.40;;;19.90;37.30;;;;;;5045361;27;82664;-59
2023/01/18 07:53:57;;;;;;;0.50;0.50;;;19.90;37.30;;;;;;5044102;28;82779;-59
2023/01/18 07:56:26;;;;;;;1.00;0.70;;;19.90;37.30;;;;;;5043743;27;82832;-59
2023/01/18 07:58:54;;;;;;;0.57;0.57;;;19.90;37.40;;;;;;5044721;27;82054;-59
2023/01/18 08:01:22;;;;;;;0.77;0.50;;;19.90;37.40;;;;;;5044630;27;83903;-59
2023/01/18 08:03:53;;;;;;;0.50;0.50;;;19.80;37.30;;;;;;5044511;27;83883;-59
2023/01/18 08:06:24;;;;;;;0.40;0.40;;;19.80;37.30;;;;;;5045790;27;82083;-59
2023/01/18 08:08:53;;;;;;;1.07;0.53;;;19.80;37.40;;;;;;5056882;27;83936;-59
2023/01/18 08:11:22;;;;;;;0.50;0.50;;;19.80;37.40;;;;;;5044286;28;82097;-59
2023/01/18 08:13:51;;;;;;;0.50;0.50;;;19.80;37.40;;;;;;5044999;28;82543;-60
2023/01/18 08:16:19;;;;;;;0.80;0.50;;;19.80;37.40;;;;;;5044574;27;81898;-59
2023/01/18 08:18:49;;;;;;;0.77;0.63;;;19.80;37.40;;;;;;5047467;27;82863;-59
2023/01/18 08:21:17;;;;;;;0.30;0.30;;;19.80;37.40;;;;;;5042586;28;85051;-59
2023/01/18 08:23:46;;;;;;;0.50;0.50;;;19.80;37.40;;;;;;5043368;28;84790;-60
2023/01/18 08:26:14;;;;;;;0.30;0.30;;;19.90;37.40;;;;;;5044230;27;81957;-61
2023/01/18 08:28:43;;;;;;;0.50;0.50;;;20.00;37.40;;;;;;5044101;28;83879;-59
2023/01/18 08:31:13;;;;;;;0.30;0.30;;;20.10;37.40;;;;;;5044081;28;82331;-60
2023/01/18 08:33:44;;;;;;;1.70;0.40;;;20.30;37.40;;;;;;5044239;28;82818;-59
2023/01/18 08:36:12;;;;;;;0.30;0.30;;;20.50;37.30;;;;;;5044020;28;82126;-59
2023/01/18 08:38:41;;;;;;;0.50;0.50;;;20.60;37.30;;;;;;5044340;27;82659;-59
2023/01/18 08:41:10;;;;;;;0.50;0.50;;;20.80;37.10;;;;;;5043534;28;83290;-59
2023/01/18 08:43:38;;;;;;;1.07;0.50;;;21.00;37.10;;;;;;5042821;27;82021;-59
2023/01/18 08:46:06;;;;;;;0.40;0.40;;;21.20;37.00;;;;;;5043099;28;83141;-59
2023/01/18 08:48:34;;;;;;;1.17;0.60;;;21.40;37.00;;;;;;5043727;27;82161;-59
2023/01/18 08:51:02;;;;;;;0.30;0.27;;;21.60;37.00;;;;;;5043569;28;83606;-59
2023/01/18 08:53:30;;;;;;;0.40;0.40;;;21.70;36.90;;;;;;5043777;27;82852;-59
2023/01/18 08:55:58;;;;;;;0.40;0.40;;;21.90;36.80;;;;;;5043563;28;81927;-59
2023/01/18 08:58:28;;;;;;;0.53;0.40;;;22.10;36.80;;;;;;5043574;28;81898;-59
2023/01/18 09:00:56;;;;;;;0.60;0.60;;;22.20;36.70;;;;;;5043792;27;82975;-59
2023/01/18 09:03:24;;;;;;;2.87;0.70;;;22.40;36.70;;;;;;5043862;27;84092;-59
2023/01/18 09:05:52;;;;;;;0.47;0.47;;;22.50;36.50;;;;;;5043173;28;82115;-59
2023/01/18 09:08:21;;;;;;;0.60;0.60;;;22.70;36.50;;;;;;5043335;28;82997;-59
2023/01/18 09:10:49;;;;;;;1.07;0.60;;;22.80;36.50;;;;;;5042855;28;85226;-59
2023/01/18 09:13:17;;;;;;;0.37;0.37;;;22.90;36.40;;;;;;5043651;27;83767;-59
2023/01/18 09:15:46;;;;;;;0.30;0.30;;;23.00;36.40;;;;;;5043361;28;81984;-59
2023/01/18 09:18:15;;;;;;;0.57;0.40;;;23.10;36.30;;;;;;5043495;28;82014;-59
2023/01/18 09:20:43;;;;;;;0.73;0.73;;;23.20;36.30;;;;;;5043066;28;83247;-59
2023/01/18 09:23:11;;;;;;;0.57;0.50;;;23.30;36.30;;;;;;5042936;28;82740;-59
2023/01/18 09:25:39;;;;;;;0.80;0.43;;;23.30;36.20;;;;;;5042830;27;82015;-59
2023/01/18 09:28:08;;;;;;;0.40;0.40;;;23.40;36.10;;;;;;5043650;28;81684;-59
2023/01/18 09:30:36;;;;;;;2.50;0.60;;;23.50;36.10;;;;;;5042817;28;82031;-59
2023/01/18 09:33:05;;;;;;;0.50;0.50;;;23.60;36.10;;;;;;5043122;28;84000;-59
2023/01/18 09:35:33;;;;;;;0.40;0.40;;;23.70;36.10;;;;;;5042835;27;82970;-60
2023/01/18 09:38:01;;;;;;;0.67;0.47;;;23.70;36.00;;;;;;5042989;28;81989;-59
2023/01/18 09:40:37;;;;;;;0.30;0.30;;;23.80;36.00;;;;;;5042671;28;82919;-57
2023/01/18 09:43:08;;;;;;;0.47;0.33;;;23.90;36.00;;;;;;5043086;27;81960;-59
2023/01/18 09:45:38;;;;;;;0.30;0.30;;;23.90;35.90;;;;;;5043263;27;82106;-58
2023/01/18 09:48:11;;;;;;;0.70;0.50;;;24.00;35.90;;;;;;5042919;28;83912;-58
2023/01/18 09:50:42;;;;;;;0.30;0.30;;;24.10;35.80;;;;;;5042732;28;83033;-57
2023/01/18 09:53:17;;;;;;;0.57;0.50;;;24.10;35.80;;;;;;5043137;27;83059;-58
2023/01/18 09:55:49;;;;;;;0.40;0.40;;;24.20;35.80;;;;;;5044694;27;82008;-58
2023/01/18 09:58:34;;;;;;;0.37;0.37;;;24.30;35.70;;;;;;5046095;28;82958;-58
2023/01/18 10:01:04;;;;;;;0.83;0.80;;;24.30;35.70;;;;;;5045690;28;84894;-57
2023/01/18 10:03:37;;;;;;;0.40;0.40;;;24.30;35.70;;;;;;5046066;28;82454;-58
2023/01/18 10:06:10;;;;;;;0.87;0.70;;;24.30;35.70;;;;;;5045815;28;81991;-58
2023/01/18 10:08:41;;;;;;;1.23;0.50;;;24.20;35.70;;;;;;5046226;28;83056;-58
2023/01/18 10:11:10;;;;;;;0.80;0.60;;;24.20;35.80;;;;;;5046214;28;83166;-57
2023/01/18 10:13:46;;;;;;;0.67;0.63;;;24.20;35.80;;;;;;5046522;27;81955;-57
2023/01/18 10:16:14;;;;;;;0.50;0.50;;;24.10;35.70;;;;;;5046028;28;81921;-58
2023/01/18 10:18:47;;;;;;;0.40;0.40;;;24.10;36.40;;;;;;5046573;28;83032;-58
2023/01/18 10:21:22;;;;;;;0.80;0.70;;;24.10;35.70;;;;;;5045195;28;83020;-57
2023/01/18 10:24:00;;;;;;;0.67;0.60;;;24.00;35.70;;;;;;5045736;27;83092;-58
2023/01/18 10:26:29;;;;;;;1.63;0.60;;;24.00;35.80;;;;;;5045680;28;82825;-58
2023/01/18 10:29:01;;;;;;;0.60;0.50;;;23.90;35.70;;;;;;5046247;28;83807;-59
2023/01/18 10:31:35;;;;;;;0.70;0.70;;;23.90;35.80;;;;;;5046074;28;83234;-59
2023/01/18 10:34:13;;;;;;;2.63;0.80;;;23.80;35.90;;;;;;5046320;28;82962;-58
2023/01/18 10:36:43;;;;;;;0.40;0.40;;;23.70;35.90;;;;;;5046037;28;81915;-59
2023/01/18 10:39:21;;;;;;;0.30;0.30;;;23.70;36.00;;;;;;5046080;27;83017;-59
2023/01/18 10:41:49;;;;;;;0.50;0.50;;;23.60;35.90;;;;;;5046146;28;83019;-60
2023/01/18 10:44:17;;;;;;;0.80;0.80;;;23.50;36.00;;;;;;5046296;27;81768;-60
2023/01/18 10:46:45;;;;;;;0.43;0.43;;;23.50;36.00;;;;;;5045603;28;82158;-59
2023/01/18 10:49:39;;;;;;;2.33;1.07;;;23.40;36.00;;;;;;5045840;28;83120;-58
2023/01/18 10:52:24;;;;;;;0.43;0.43;;;23.30;36.10;;;;;;5044933;27;84063;-57
2023/01/18 10:54:54;;;;;;;1.37;0.30;;;23.20;36.00;;;;;;5044926;27;84983;-58
2023/01/18 10:57:25;;;;;;;0.30;0.30;;;23.20;36.10;;;;;;5045294;27;82116;-58
2023/01/18 10:59:53;;;;;;;0.30;0.30;;;23.10;36.10;;;;;;5045760;28;83290;-58
2023/01/18 11:02:23;;;;;;;0.67;0.60;;;23.00;36.10;;;;;;5045337;28;83153;-58
2023/01/18 11:04:57;;;;;;;0.30;0.30;;;23.00;36.10;;;;;;5045200;28;82344;-58
2023/01/18 11:07:26;;;;;;;1.87;0.53;;;22.90;36.20;;;;;;5044243;27;82007;-58
2023/01/18 11:09:54;;;;;;;0.30;0.30;;;22.90;36.20;;;;;;5045790;28;83260;-58
2023/01/18 11:12:33;;;;;;;0.70;0.50;;;22.80;36.20;;;;;;5045417;28;81988;-58
2023/01/18 11:15:21;;;;;;;0.70;0.67;;;22.80;36.20;;;;;;5045131;27;83003;-58
2023/01/18 11:18:02;;;;;;;0.60;0.50;;;22.70;36.30;;;;;;5044904;28;82798;-58
2023/01/18 11:20:34;;;;;;;0.30;0.30;;;22.60;36.20;;;;;;5044488;28;81978;-57
2023/01/18 11:23:03;;;;;;;0.60;0.60;;;22.60;36.30;;;;;;5044735;28;83175;-58
2023/01/18 11:25:36;;;;;;;0.30;0.30;;;22.60;36.40;;;;;;5044648;27;82844;-58
2023/01/18 11:28:06;;;;;;;0.40;0.40;;;22.50;36.30;;;;;;5044699;28;81969;-58
2023/01/18 11:30:34;;;;;;;0.40;0.40;;;22.50;36.30;;;;;;5044656;27;83022;-58
2023/01/18 11:33:02;;;;;;;0.47;0.47;;;22.50;36.40;;;;;;5044909;28;84130;-58
2023/01/18 11:35:32;;;;;;;1.30;0.67;;;22.40;36.40;;;;;;5045076;27;81733;-58
2023/01/18 11:38:01;;;;;;;1.53;0.50;;;22.40;36.40;;;;;;5044324;28;81949;-60
2023/01/18 11:40:31;;;;;;;0.40;0.40;;;22.40;36.40;;;;;;5044692;28;82766;-58
2023/01/18 11:43:02;;;;;;;1.47;0.60;;;22.30;36.30;;;;;;5043979;28;84033;-58
2023/01/18 11:45:31;;;;;;;1.17;0.73;;;22.30;36.40;;;;;;5044890;28;83730;-58
2023/01/18 11:48:02;;;;;;;0.67;0.53;;;22.30;36.40;;;;;;5045234;28;82014;-58
2023/01/18 11:50:34;;;;;;;0.87;0.67;;;22.30;36.40;;;;;;5044655;28;82097;-58
2023/01/18 11:53:09;;;;;;;1.23;0.60;;;22.30;36.40;;;;;;5044534;28;84142;-58
2023/01/18 11:55:42;;;;;;;0.30;0.30;;;22.20;37.00;;;;;;5044151;27;82000;-58
2023/01/18 11:58:16;;;;;;;0.40;0.40;;;22.20;36.40;;;;;;5044668;28;81956;-58
2023/01/18 12:00:48;;;;;;;0.67;0.67;;;22.20;36.50;;;;;;5045005;28;82912;-59
2023/01/18 12:03:49;;;;;;;0.80;0.40;;;22.10;36.40;;;;;;5044905;28;82210;-57
2023/01/18 12:06:23;;;;;;;1.00;0.90;;;22.10;36.40;;;;;;5044537;28;82804;-58
2023/01/18 12:09:04;;;;;;;0.53;0.53;;;22.10;36.50;;;;;;5044474;28;82847;-58
2023/01/18 12:11:42;;;;;;;1.50;0.50;;;22.00;36.50;;;;;;5044355;27;82000;-58
2023/01/18 12:14:19;;;;;;;0.40;0.40;;;22.00;36.50;;;;;;5044306;28;83173;-59
2023/01/18 12:16:54;;;;;;;0.50;0.50;;;22.00;36.50;;;;;;5043640;27;83983;-58
2023/01/18 12:20:01;;;;;;;0.50;0.50;;;22.00;36.60;;;;;;5043031;27;81870;-59
2023/01/18 12:22:56;;;;;;;0.47;0.47;;;22.00;36.60;;;;;;5030325;27;82945;-58
2023/01/18 12:25:37;;;;;;;0.73;0.67;;;21.90;36.60;;;;;;5044145;28;82051;-58
2023/01/18 12:28:08;;;;;;;1.07;0.73;;;21.90;36.60;;;;;;5044640;27;81716;-58
2023/01/18 12:30:45;;;;;;;0.50;0.50;;;21.90;36.60;;;;;;5043790;28;82075;-58
2023/01/18 12:33:19;;;;;;;0.70;0.40;;;21.80;36.60;;;;;;5044263;27;83009;-59
2023/01/18 12:36:51;;;;;;;0.40;0.40;;;21.80;36.60;;;;;;5043030;28;83558;-60
2023/01/18 12:39:35;;;;;;;0.37;0.37;;;21.80;36.60;;;;;;5023723;28;85926;-59
2023/01/18 12:42:04;;;;;;;0.50;0.50;;;21.80;36.70;;;;;;5044177;28;81928;-58
2023/01/18 12:44:58;;;;;;;0.60;0.60;;;21.80;36.70;;;;;;5043922;28;84009;-58
2023/01/18 12:47:34;;;;;;;1.17;0.50;;;21.80;36.70;;;;;;5043280;28;83366;-57
2023/01/18 12:50:07;;;;;;;0.60;0.40;;;21.80;36.70;;;;;;5043791;27;82819;-60
2023/01/18 12:52:38;;;;;;;0.40;0.40;;;21.70;36.70;;;;;;5044026;28;83714;-60
2023/01/18 12:55:15;;;;;;;0.40;0.40;;;21.70;36.70;;;;;;5044013;28;83954;-59
2023/01/18 12:57:43;;;;;;;0.40;0.40;;;21.70;36.70;;;;;;5043712;28;82020;-58
2023/01/18 13:00:16;;;;;;;0.63;0.50;;;21.60;36.70;;;;;;5042758;28;83729;-58
2023/01/18 13:02:46;;;;;;;0.33;0.30;;;21.60;36.70;;;;;;5043362;27;82967;-58
2023/01/18 13:05:17;;;;;;;0.60;0.60;;;21.60;36.70;;;;;;5043615;28;83941;-58
2023/01/18 13:07:47;;;;;;;0.20;0.20;;;21.60;36.80;;;;;;5043562;28;83084;-58
2023/01/18 13:10:18;;;;;;;0.50;0.50;;;21.60;36.80;;;;;;5043616;27;83920;-58
2023/01/18 13:12:46;;;;;;;0.63;0.50;;;21.60;36.80;;;;;;5043251;28;81983;-59
2023/01/18 13:15:20;;;;;;;2.00;0.60;;;21.60;36.80;;;;;;5043562;28;83954;-58
2023/01/18 13:17:50;;;;;;;0.40;0.40;;;21.50;36.80;;;;;;5043806;28;82850;-58
2023/01/18 13:20:21;;;;;;;1.17;0.40;;;21.50;36.80;;;;;;5043546;28;81719;-59
2023/01/18 13:22:54;;;;;;;0.60;0.60;;;21.50;36.80;;;;;;5042338;28;82047;-58
2023/01/18 13:25:35;;;;;;;0.47;0.47;;;21.50;36.90;;;;;;5042705;28;82565;-58
2023/01/18 13:28:04;;;;;;;0.40;0.40;;;21.50;36.90;;;;;;5042196;28;84461;-58
2023/01/18 13:30:34;;;;;;;1.20;0.40;;;21.50;37.00;;;;;;5042226;27;82511;-58
2023/01/18 13:33:12;;;;;;;2.23;0.60;;;21.40;36.90;;;;;;5043129;28;82047;-58
2023/01/18 13:35:48;;;;;;;0.40;0.40;;;21.40;36.90;;;;;;5043082;27;82755;-58
2023/01/18 13:38:18;;;;;;;0.67;0.57;;;21.40;37.00;;;;;;5042948;27;82947;-58
2023/01/18 13:40:55;;;;;;;0.73;0.70;;;21.40;37.00;;;;;;5043028;28;81985;-58
2023/01/18 13:43:31;;;;;;;0.47;0.47;;;21.30;37.00;;;;;;5043395;28;82018;-58